KBQK

Brunswick Golden Isles Airport

Airport
ICAO code
KBQK
IATA Code
BQK
Summary
ICAO Region
NAM
ICAO Territory
Location

Brunswick, Georgia

Serving
Brunswick
Elevation
26 ft
Coordinates
31° 15' 26" N , 81° 28' 8" W
KCC
Metar
KBQK 140455Z AUTO 03005KT 10SM CLR 25/23 A2992 RMK AO2 T02460230

Description

Brunswick Golden Isles Airport, previously known as Glynco Jetport, is a public-use airport located 5 nm north of Brunswick, Georgia, USA.

Airport map

Aerial View

SKYbrary Partners:

Safety knowledge contributed by: